Time,TemperatureF,DewpointF,PressureIn,WindDirection,WindDirectionDegrees,WindSpeedMPH,WindSpeedGustMPH,Humidity,HourlyPrecipIn,Conditions,Clouds,dailyrainin,SoftwareType,DateUTC
2013-03-29 00:03:00,62.9,53.3,30.08,WSW,248,1.0,6.0,71,0.00,,,0.00,LWC2 V0.39 B123,2013-03-29 06:03:00,
2013-03-29 00:08:00,62.8,53.6,30.08,WSW,241,3.0,4.0,72,0.00,,,0.00,LWC2 V0.39 B123,2013-03-29 06:08:00,
2013-03-29 00:13:00,62.8,53.6,30.08,SW,235,2.0,5.0,72,0.00,,,0.00,LWC2 V0.39 B123,2013-03-29 06:13:00,
2013-03-29 00:18:00,62.9,53.7,30.07,SSW,200,3.0,7.0,72,0.00,,,0.00,LWC2 V0.39 B123,2013-03-29 06:18:00,
2013-03-29 00:23:00,62.8,53.6,30.07,SSW,198,4.0,6.0,72,0.00,,,0.00,LWC2 V0.39 B123,2013-03-29 06:23:00,
2013-03-29 00:28:00,62.8,53.6,30.07,SSW,198,3.0,6.0,72,0.00,,,0.00,LWC2 V0.39 B123,2013-03-29 06:28:00,
2013-03-29 00:33:00,62.7,53.9,30.07,SW,235,3.0,4.0,73,0.00,,,0.00,LWC2 V0.39 B123,2013-03-29 06:33:00,
2013-03-29 00:38:00,62.5,53.7,30.07,WSW,255,3.0,6.0,73,0.00,,,0.00,LWC2 V0.39 B123,2013-03-29 06:38:00,
2013-03-29 00:43:00,62.3,53.5,30.07,SW,236,2.0,5.0,73,0.00,,,0.00,LWC2 V0.39 B123,2013-03-29 06:43:00,
2013-03-29 00:48:00,62.3,53.9,30.07,West,269,1.0,3.0,74,0.00,,,0.00,LWC2 V0.39 B123,2013-03-29 06:48:00,
2013-03-29 00:53:00,62.3,53.9,30.07,WNW,294,2.0,5.0,74,0.00,,,0.00,LWC2 V0.39 B123,2013-03-29 06:53:00,
2013-03-29 00:58:00,62.1,53.7,30.07,West,264,6.0,8.0,74,0.00,,,0.00,LWC2 V0.39 B123,2013-03-29 06:58:00,
2013-03-29 01:03:00,62.0,53.6,30.07,WSW,247,2.0,7.0,74,0.00,,,0.00,LWC2 V0.39 B123,2013-03-29 07:03:00,
2013-03-29 01:09:00,61.9,53.9,30.07,SW,236,1.0,3.0,75,0.00,,,0.00,LWC2 V0.39 B123,2013-03-29 07:09:00,
2013-03-29 01:14:00,61.7,53.7,30.07,WSW,252,2.0,4.0,75,0.00,,,0.00,LWC2 V0.39 B123,2013-03-29 07:14:00,
2013-03-29 01:19:00,61.5,53.5,30.07,SW,236,1.0,1.0,75,0.00,,,0.00,LWC2 V0.39 B123,2013-03-29 07:19:00,
2013-03-29 01:24:00,61.3,53.7,30.07,WSW,242,0.0,3.0,76,0.00,,,0.00,LWC2 V0.39 B123,2013-03-29 07:24:00,
2013-03-29 01:29:00,61.2,53.6,30.07,South,186,3.0,3.0,76,0.00,,,0.00,LWC2 V0.39 B123,2013-03-29 07:29:00,
2013-03-29 01:34:00,61.2,53.6,30.07,SW,221,3.0,3.0,76,0.00,,,0.00,LWC2 V0.39 B123,2013-03-29 07:34:00,
2013-03-29 01:39:00,61.0,53.7,30.07,SSE,160,3.0,4.0,77,0.00,,,0.00,LWC2 V0.39 B123,2013-03-29 07:39:00,
2013-03-29 01:44:00,61.1,53.8,30.07,South,173,2.0,3.0,77,0.00,,,0.00,LWC2 V0.39 B123,2013-03-29 07:44:00,
2013-03-29 01:49:00,60.8,53.5,30.07,South,177,1.0,3.0,77,0.00,,,0.00,LWC2 V0.39 B123,2013-03-29 07:49:00,
2013-03-29 01:54:00,60.7,53.4,30.07,South,184,2.0,2.0,77,0.00,,,0.00,LWC2 V0.39 B123,2013-03-29 07:54:00,
2013-03-29 01:59:00,60.6,53.7,30.07,SSE,164,2.0,2.0,78,0.00,,,0.00,LWC2 V0.39 B123,2013-03-29 07:59:00,
2013-03-29 02:04:00,60.5,53.6,30.06,SSE,149,1.0,3.0,78,0.00,,,0.00,LWC2 V0.39 B123,2013-03-29 08:04:00,
2013-03-29 02:09:00,60.4,53.5,30.06,SSE,163,1.0,2.0,78,0.00,,,0.00,LWC2 V0.39 B123,2013-03-29 08:09:00,
2013-03-29 02:14:00,60.2,53.7,30.06,South,189,0.0,5.0,79,0.00,,,0.00,LWC2 V0.39 B123,2013-03-29 08:14:00,
2013-03-29 02:19:00,60.1,53.6,30.06,South,190,1.0,3.0,79,0.00,,,0.00,LWC2 V0.39 B123,2013-03-29 08:19:00,
2013-03-29 02:24:00,59.9,53.4,30.06,SW,221,3.0,4.0,79,0.00,,,0.00,LWC2 V0.39 B123,2013-03-29 08:24:00,
2013-03-29 02:29:00,59.9,53.7,30.06,SSW,207,0.0,3.0,80,0.00,,,0.00,LWC2 V0.39 B123,2013-03-29 08:29:00,
2013-03-29 02:34:00,59.8,53.6,30.06,SSE,161,1.0,1.0,80,0.00,,,0.00,LWC2 V0.39 B123,2013-03-29 08:34:00,
2013-03-29 02:39:00,59.6,53.4,30.06,South,187,0.0,1.0,80,0.00,,,0.00,LWC2 V0.39 B123,2013-03-29 08:39:00,
2013-03-29 02:44:00,59.5,53.7,30.06,SSE,150,1.0,3.0,81,0.00,,,0.00,LWC2 V0.39 B123,2013-03-29 08:44:00,
2013-03-29 02:49:00,59.7,53.9,30.06,SE,136,0.0,1.0,81,0.00,,,0.00,LWC2 V0.39 B123,2013-03-29 08:49:00,
2013-03-29 02:54:00,59.8,53.6,30.06,SSE,163,1.0,2.0,80,0.00,,,0.00,LWC2 V0.39 B123,2013-03-29 08:54:00,
2013-03-29 02:59:00,59.7,53.5,30.06,SSE,163,0.0,0.0,80,0.00,,,0.00,LWC2 V0.39 B123,2013-03-29 08:59:00,
2013-03-29 03:04:00,59.6,53.4,30.06,SE,144,0.0,0.0,80,0.00,,,0.00,LWC2 V0.39 B123,2013-03-29 09:04:00,
2013-03-29 03:09:00,59.4,53.2,30.06,SE,143,0.0,0.0,80,0.00,,,0.00,LWC2 V0.39 B123,2013-03-29 09:09:00,
2013-03-29 03:14:00,59.3,53.5,30.06,SE,128,0.0,0.0,81,0.00,,,0.00,LWC2 V0.39 B123,2013-03-29 09:14:00,
2013-03-29 03:19:00,59.2,53.4,30.06,SE,128,0.0,0.0,81,0.00,,,0.00,LWC2 V0.39 B123,2013-03-29 09:19:00,
2013-03-29 03:24:00,59.1,53.3,30.06,ESE,109,0.0,1.0,81,0.00,,,0.00,LWC2 V0.39 B123,2013-03-29 09:24:00,
2013-03-29 03:29:00,59.0,53.2,30.06,ESE,109,0.0,0.0,81,0.00,,,0.00,LWC2 V0.39 B123,2013-03-29 09:29:00,
2013-03-29 03:34:00,58.9,53.1,30.06,ESE,108,0.0,0.0,81,0.00,,,0.00,LWC2 V0.39 B123,2013-03-29 09:34:00,
2013-03-29 03:39:00,58.7,52.9,30.06,ESE,109,0.0,0.0,81,0.00,,,0.00,LWC2 V0.39 B123,2013-03-29 09:39:00,
2013-03-29 03:44:00,58.6,53.1,30.06,ESE,111,0.0,0.0,82,0.00,,,0.00,LWC2 V0.39 B123,2013-03-29 09:44:00,
2013-03-29 03:49:00,58.4,52.9,30.06,ESE,113,0.0,0.0,82,0.00,,,0.00,LWC2 V0.39 B123,2013-03-29 09:49:00,
2013-03-29 03:54:00,58.4,53.3,30.06,South,169,0.0,3.0,83,0.00,,,0.00,LWC2 V0.39 B123,2013-03-29 09:54:00,
2013-03-29 03:59:00,58.5,53.4,30.06,South,180,2.0,2.0,83,0.00,,,0.00,LWC2 V0.39 B123,2013-03-29 09:59:00,
2013-03-29 04:04:00,58.5,53.4,30.06,SW,217,1.0,2.0,83,0.00,,,0.00,LWC2 V0.39 B123,2013-03-29 10:04:00,
2013-03-29 04:09:00,58.5,53.4,30.05,West,264,2.0,2.0,83,0.00,,,0.00,LWC2 V0.39 B123,2013-03-29 10:09:00,
2013-03-29 04:14:00,58.6,53.5,30.06,South,184,1.0,2.0,83,0.00,,,0.00,LWC2 V0.39 B123,2013-03-29 10:14:00,
2013-03-29 04:19:00,58.5,53.4,30.05,South,178,1.0,2.0,83,0.00,,,0.00,LWC2 V0.39 B123,2013-03-29 10:19:00,
2013-03-29 04:24:00,58.4,53.3,30.05,South,172,0.0,1.0,83,0.00,,,0.00,LWC2 V0.39 B123,2013-03-29 10:24:00,
2013-03-29 04:29:00,58.2,53.1,30.06,SW,217,0.0,0.0,83,0.00,,,0.00,LWC2 V0.39 B123,2013-03-29 10:29:00,
2013-03-29 04:34:00,58.1,53.3,30.06,SSE,153,0.0,0.0,84,0.00,,,0.00,LWC2 V0.39 B123,2013-03-29 10:34:00,
2013-03-29 04:39:00,57.4,52.3,30.06,SSE,153,0.0,0.0,83,0.00,,,0.00,LWC2 V0.39 B123,2013-03-29 10:39:00,
2013-03-29 04:44:00,56.5,51.7,30.06,SSE,154,0.0,0.0,84,0.00,,,0.00,LWC2 V0.39 B123,2013-03-29 10:44:00,
2013-03-29 04:49:00,56.1,51.7,30.06,SSE,153,0.0,0.0,85,0.00,,,0.00,LWC2 V0.39 B123,2013-03-29 10:49:00,
2013-03-29 04:54:00,55.7,51.3,30.06,SSE,152,0.0,0.0,85,0.00,,,0.00,LWC2 V0.39 B123,2013-03-29 10:54:00,
2013-03-29 04:59:00,55.3,51.2,30.06,SSE,153,0.0,0.0,86,0.00,,,0.00,LWC2 V0.39 B123,2013-03-29 10:59:00,
2013-03-29 05:04:00,55.3,51.5,30.06,SSE,152,0.0,0.0,87,0.00,,,0.00,LWC2 V0.39 B123,2013-03-29 11:04:00,
2013-03-29 05:09:00,55.4,51.6,30.06,SSE,152,0.0,0.0,87,0.00,,,0.00,LWC2 V0.39 B123,2013-03-29 11:09:00,
2013-03-29 05:14:00,55.4,51.9,30.06,SSE,153,0.0,0.0,88,0.00,,,0.00,LWC2 V0.39 B123,2013-03-29 11:14:00,
2013-03-29 05:19:00,55.6,52.4,30.06,SSE,153,0.0,0.0,89,0.00,,,0.00,LWC2 V0.39 B123,2013-03-29 11:19:00,
2013-03-29 05:24:00,55.9,52.4,30.06,SE,143,0.0,0.0,88,0.00,,,0.00,LWC2 V0.39 B123,2013-03-29 11:24:00,
2013-03-29 05:29:00,55.3,51.2,30.07,SE,139,0.0,0.0,86,0.00,,,0.00,LWC2 V0.39 B123,2013-03-29 11:29:00,
2013-03-29 05:34:00,54.6,50.8,30.07,SE,139,0.0,0.0,87,0.00,,,0.00,LWC2 V0.39 B123,2013-03-29 11:34:00,
2013-03-29 05:39:00,54.3,50.8,30.07,SE,140,0.0,0.0,88,0.00,,,0.00,LWC2 V0.39 B123,2013-03-29 11:39:00,
2013-03-29 05:44:00,54.4,51.2,30.07,SE,140,0.0,0.0,89,0.00,,,0.00,LWC2 V0.39 B123,2013-03-29 11:44:00,
2013-03-29 05:49:00,54.5,51.6,30.07,SE,140,0.0,0.0,90,0.00,,,0.00,LWC2 V0.39 B123,2013-03-29 11:49:00,
2013-03-29 05:54:00,54.9,52.0,30.07,SE,139,0.0,0.0,90,0.00,,,0.00,LWC2 V0.39 B123,2013-03-29 11:54:00,
2013-03-29 05:59:00,55.4,52.5,30.08,SE,139,0.0,0.0,90,0.00,,,0.00,LWC2 V0.39 B123,2013-03-29 11:59:00,
2013-03-29 06:04:00,55.5,52.3,30.08,SE,140,0.0,0.0,89,0.00,,,0.00,LWC2 V0.39 B123,2013-03-29 12:04:00,
2013-03-29 06:09:00,55.1,51.6,30.08,SE,140,0.0,0.0,88,0.00,,,0.00,LWC2 V0.39 B123,2013-03-29 12:09:00,
2013-03-29 06:14:00,54.5,51.0,30.08,SE,139,0.0,0.0,88,0.00,,,0.00,LWC2 V0.39 B123,2013-03-29 12:14:00,
2013-03-29 06:19:00,54.3,51.1,30.08,SE,124,0.0,0.0,89,0.00,,,0.00,LWC2 V0.39 B123,2013-03-29 12:19:00,
2013-03-29 06:24:00,54.1,50.9,30.08,SE,124,0.0,0.0,89,0.00,,,0.00,LWC2 V0.39 B123,2013-03-29 12:24:00,
2013-03-29 06:29:00,54.0,51.1,30.08,ESE,122,0.0,1.0,90,0.00,,,0.00,LWC2 V0.39 B123,2013-03-29 12:29:00,
2013-03-29 06:35:00,53.9,51.0,30.08,ESE,114,0.0,1.0,90,0.00,,,0.00,LWC2 V0.39 B123,2013-03-29 12:35:00,
2013-03-29 06:40:00,54.0,51.1,30.09,ESE,114,0.0,0.0,90,0.00,,,0.00,LWC2 V0.39 B123,2013-03-29 12:40:00,
2013-03-29 06:45:00,54.0,51.1,30.09,ESE,114,0.0,0.0,90,0.00,,,0.00,LWC2 V0.39 B123,2013-03-29 12:45:00,
2013-03-29 06:50:00,54.1,51.2,30.09,ESE,114,0.0,0.0,90,0.00,,,0.00,LWC2 V0.39 B123,2013-03-29 12:50:00,
2013-03-29 06:55:00,54.2,51.3,30.09,ESE,114,0.0,0.0,90,0.00,,,0.00,LWC2 V0.39 B123,2013-03-29 12:55:00,
2013-03-29 07:00:00,54.3,51.1,30.09,ESE,115,0.0,0.0,89,0.00,,,0.00,LWC2 V0.39 B123,2013-03-29 13:00:00,
2013-03-29 07:05:00,54.3,51.1,30.10,ESE,114,0.0,0.0,89,0.00,,,0.00,LWC2 V0.39 B123,2013-03-29 13:05:00,
2013-03-29 07:10:00,54.3,51.1,30.10,ESE,115,0.0,0.0,89,0.00,,,0.00,LWC2 V0.39 B123,2013-03-29 13:10:00,
2013-03-29 07:16:00,55.0,51.8,30.10,ESE,118,0.0,0.0,89,0.00,,,0.00,LWC2 V0.39 B123,2013-03-29 13:16:00,
2013-03-29 07:21:00,55.6,52.1,30.10,ESE,103,0.0,0.0,88,0.00,,,0.00,LWC2 V0.39 B123,2013-03-29 13:21:00,
2013-03-29 07:26:00,56.2,52.7,30.10,SE,124,0.0,0.0,88,0.00,,,0.00,LWC2 V0.39 B123,2013-03-29 13:26:00,
2013-03-29 07:31:00,56.7,52.6,30.10,ESE,115,0.0,0.0,86,0.00,,,0.00,LWC2 V0.39 B123,2013-03-29 13:31:00,
2013-03-29 07:36:00,57.1,52.9,30.10,ESE,109,0.0,0.0,86,0.00,,,0.00,LWC2 V0.39 B123,2013-03-29 13:36:00,
2013-03-29 07:41:00,57.5,53.3,30.10,ESE,105,0.0,0.0,86,0.00,,,0.00,LWC2 V0.39 B123,2013-03-29 13:41:00,
2013-03-29 07:46:00,58.0,53.5,30.10,ESE,108,0.0,0.0,85,0.00,,,0.00,LWC2 V0.39 B123,2013-03-29 13:46:00,
2013-03-29 07:51:00,58.3,53.5,30.10,ESE,107,0.0,0.0,84,0.00,,,0.00,LWC2 V0.39 B123,2013-03-29 13:51:00,
2013-03-29 07:56:00,58.1,53.0,30.10,ESE,108,0.0,0.0,83,0.00,,,0.00,LWC2 V0.39 B123,2013-03-29 13:56:00,
2013-03-29 08:01:00,57.6,52.5,30.10,ESE,106,0.0,0.0,83,0.00,,,0.00,LWC2 V0.39 B123,2013-03-29 14:01:00,
2013-03-29 08:06:00,57.4,52.6,30.10,ESE,105,0.0,0.0,84,0.00,,,0.00,LWC2 V0.39 B123,2013-03-29 14:06:00,
2013-03-29 08:12:00,57.9,53.4,30.10,ESE,113,1.0,3.0,85,0.00,,,0.00,LWC2 V0.39 B123,2013-03-29 14:12:00,
2013-03-29 08:17:00,58.7,53.9,30.10,ESE,105,1.0,1.0,84,0.00,,,0.00,LWC2 V0.39 B123,2013-03-29 14:17:00,
2013-03-29 08:22:00,59.3,54.1,30.11,East,84,0.0,2.0,83,0.00,,,0.00,LWC2 V0.39 B123,2013-03-29 14:22:00,
2013-03-29 08:27:00,60.3,54.4,30.11,ESE,115,2.0,2.0,81,0.00,,,0.00,LWC2 V0.39 B123,2013-03-29 14:27:00,
2013-03-29 08:32:00,60.8,54.6,30.11,ENE,77,2.0,4.0,80,0.00,,,0.00,LWC2 V0.39 B123,2013-03-29 14:32:00,
2013-03-29 08:37:00,61.1,54.5,30.11,East,92,0.0,3.0,79,0.00,,,0.00,LWC2 V0.39 B123,2013-03-29 14:37:00,
2013-03-29 08:42:00,61.3,54.4,30.11,East,83,2.0,2.0,78,0.00,,,0.00,LWC2 V0.39 B123,2013-03-29 14:42:00,
2013-03-29 08:47:00,61.7,54.8,30.11,East,89,2.0,4.0,78,0.00,,,0.00,LWC2 V0.39 B123,2013-03-29 14:47:00,
2013-03-29 08:52:00,62.3,55.7,30.11,SE,131,2.0,3.0,79,0.00,,,0.00,LWC2 V0.39 B123,2013-03-29 14:52:00,
2013-03-29 08:57:00,62.5,55.9,30.11,ESE,105,3.0,4.0,79,0.00,,,0.00,LWC2 V0.39 B123,2013-03-29 14:57:00,
2013-03-29 09:02:00,62.9,56.3,30.11,ESE,113,1.0,1.0,79,0.00,,,0.00,LWC2 V0.39 B123,2013-03-29 15:02:00,
2013-03-29 09:07:00,63.7,56.7,30.11,East,83,1.0,4.0,78,0.00,,,0.00,LWC2 V0.39 B123,2013-03-29 15:07:00,
2013-03-29 09:12:00,64.2,56.5,30.11,East,81,3.0,4.0,76,0.00,,,0.00,LWC2 V0.39 B123,2013-03-29 15:12:00,
2013-03-29 09:17:00,64.4,57.0,30.11,NE,54,4.0,4.0,77,0.00,,,0.00,LWC2 V0.39 B123,2013-03-29 15:17:00,
2013-03-29 09:22:00,65.2,57.4,30.11,SE,127,3.0,5.0,76,0.00,,,0.00,LWC2 V0.39 B123,2013-03-29 15:22:00,
2013-03-29 09:27:00,65.1,57.3,30.11,SE,134,3.0,4.0,76,0.00,,,0.00,LWC2 V0.39 B123,2013-03-29 15:27:00,
2013-03-29 09:32:00,65.5,57.4,30.10,ESE,106,2.0,3.0,75,0.00,,,0.00,LWC2 V0.39 B123,2013-03-29 15:32:00,
2013-03-29 09:37:00,66.1,57.6,30.11,NE,46,3.0,4.0,74,0.00,,,0.00,LWC2 V0.39 B123,2013-03-29 15:37:00,
2013-03-29 09:42:00,66.1,57.2,30.11,NE,47,3.0,3.0,73,0.00,,,0.00,LWC2 V0.39 B123,2013-03-29 15:42:00,
2013-03-29 09:47:00,65.6,57.1,30.10,NE,36,2.0,4.0,74,0.00,,,0.00,LWC2 V0.39 B123,2013-03-29 15:47:00,
2013-03-29 09:52:00,65.4,56.9,30.11,NE,43,3.0,4.0,74,0.00,,,0.00,LWC2 V0.39 B123,2013-03-29 15:52:00,
2013-03-29 09:57:00,65.4,57.3,30.11,NNE,13,5.0,7.0,75,0.00,,,0.00,LWC2 V0.39 B123,2013-03-29 15:57:00,
2013-03-29 10:02:00,65.6,57.5,30.11,East,84,2.0,5.0,75,0.00,,,0.00,LWC2 V0.39 B123,2013-03-29 16:02:00,
2013-03-29 10:07:00,66.1,57.6,30.11,ENE,64,3.0,4.0,74,0.00,,,0.00,LWC2 V0.39 B123,2013-03-29 16:07:00,
2013-03-29 10:12:00,66.1,57.6,30.11,NNE,19,3.0,4.0,74,0.00,,,0.00,LWC2 V0.39 B123,2013-03-29 16:12:00,
2013-03-29 10:17:00,66.1,57.6,30.10,North,359,3.0,4.0,74,0.00,,,0.00,LWC2 V0.39 B123,2013-03-29 16:17:00,
2013-03-29 10:22:00,66.7,57.8,30.10,ENE,72,3.0,3.0,73,0.00,,,0.00,LWC2 V0.39 B123,2013-03-29 16:22:00,
2013-03-29 10:28:00,67.5,58.1,30.10,ESE,105,2.0,4.0,72,0.00,,,0.00,LWC2 V0.39 B123,2013-03-29 16:28:00,
2013-03-29 10:33:00,68.2,58.4,30.10,ESE,103,2.0,4.0,71,0.00,,,0.00,LWC2 V0.39 B123,2013-03-29 16:33:00,
2013-03-29 10:38:00,68.4,58.6,30.10,ESE,109,2.0,3.0,71,0.00,,,0.00,LWC2 V0.39 B123,2013-03-29 16:38:00,
2013-03-29 10:43:00,69.0,58.8,30.10,East,86,2.0,3.0,70,0.00,,,0.00,LWC2 V0.39 B123,2013-03-29 16:43:00,
2013-03-29 10:48:00,68.9,58.3,30.11,SE,135,0.0,3.0,69,0.00,,,0.00,LWC2 V0.39 B123,2013-03-29 16:48:00,
2013-03-29 10:53:00,68.6,58.0,30.11,SE,128,2.0,3.0,69,0.00,,,0.00,LWC2 V0.39 B123,2013-03-29 16:53:00,
2013-03-29 10:59:00,68.9,58.3,30.11,NE,41,2.0,4.0,69,0.00,,,0.00,LWC2 V0.39 B123,2013-03-29 16:59:00,
2013-03-29 11:04:00,68.8,58.6,30.10,ENE,63,2.0,4.0,70,0.00,,,0.00,LWC2 V0.39 B123,2013-03-29 17:04:00,
2013-03-29 11:10:00,68.6,58.4,30.10,East,82,2.0,3.0,70,0.00,,,0.00,LWC2 V0.39 B123,2013-03-29 17:10:00,
2013-03-29 11:15:00,68.6,58.4,30.10,ENE,59,3.0,5.0,70,0.00,,,0.00,LWC2 V0.39 B123,2013-03-29 17:15:00,
2013-03-29 11:20:00,68.5,58.3,30.10,ENE,70,1.0,5.0,70,0.00,,,0.00,LWC2 V0.39 B123,2013-03-29 17:20:00,
2013-03-29 11:25:00,68.9,58.7,30.10,East,88,3.0,4.0,70,0.00,,,0.00,LWC2 V0.39 B123,2013-03-29 17:25:00,
2013-03-29 11:30:00,68.6,58.0,30.10,East,90,3.0,4.0,69,0.00,,,0.00,LWC2 V0.39 B123,2013-03-29 17:30:00,
2013-03-29 11:35:00,68.3,58.1,30.10,ENE,68,3.0,4.0,70,0.00,,,0.00,LWC2 V0.39 B123,2013-03-29 17:35:00,
2013-03-29 11:40:00,68.1,57.9,30.10,ENE,65,3.0,6.0,70,0.00,,,0.00,LWC2 V0.39 B123,2013-03-29 17:40:00,
2013-03-29 11:45:00,67.8,57.6,30.09,East,86,2.0,3.0,70,0.00,,,0.00,LWC2 V0.39 B123,2013-03-29 17:45:00,
2013-03-29 11:50:00,67.9,57.7,30.09,East,81,4.0,6.0,70,0.00,,,0.00,LWC2 V0.39 B123,2013-03-29 17:50:00,
2013-03-29 11:55:00,68.2,58.0,30.09,East,96,2.0,4.0,70,0.00,,,0.00,LWC2 V0.39 B123,2013-03-29 17:55:00,
2013-03-29 12:00:00,68.5,57.9,30.08,East,100,5.0,5.0,69,0.00,,,0.00,LWC2 V0.39 B123,2013-03-29 18:00:00,
2013-03-29 12:05:00,68.8,58.2,30.08,ENE,71,4.0,5.0,69,0.00,,,0.00,LWC2 V0.39 B123,2013-03-29 18:05:00,
2013-03-29 12:10:00,70.4,58.5,30.08,East,86,4.0,6.0,66,0.00,,,0.00,LWC2 V0.39 B123,2013-03-29 18:10:00,
2013-03-29 12:15:00,71.2,59.2,30.08,East,84,3.0,6.0,66,0.00,,,0.00,LWC2 V0.39 B123,2013-03-29 18:15:00,
2013-03-29 12:20:00,71.7,58.4,30.07,ESE,105,4.0,7.0,63,0.00,,,0.00,LWC2 V0.39 B123,2013-03-29 18:20:00,
2013-03-29 12:25:00,71.5,58.7,30.07,East,79,6.0,6.0,64,0.00,,,0.00,LWC2 V0.39 B123,2013-03-29 18:25:00,
2013-03-29 12:30:00,71.7,58.9,30.07,East,80,4.0,8.0,64,0.00,,,0.00,LWC2 V0.39 B123,2013-03-29 18:30:00,
2013-03-29 12:35:00,71.6,58.3,30.07,East,96,4.0,7.0,63,0.00,,,0.00,LWC2 V0.39 B123,2013-03-29 18:35:00,
2013-03-29 12:40:00,71.2,58.8,30.06,East,84,3.0,6.0,65,0.00,,,0.00,LWC2 V0.39 B123,2013-03-29 18:40:00,
2013-03-29 12:45:00,71.8,59.0,30.06,East,79,3.0,6.0,64,0.00,,,0.00,LWC2 V0.39 B123,2013-03-29 18:45:00,
2013-03-29 12:50:00,71.9,59.0,30.06,ENE,75,4.0,6.0,64,0.00,,,0.00,LWC2 V0.39 B123,2013-03-29 18:50:00,
2013-03-29 12:55:00,71.9,58.6,30.06,East,84,7.0,7.0,63,0.00,,,0.00,LWC2 V0.39 B123,2013-03-29 18:55:00,
2013-03-29 13:00:00,71.1,58.3,30.06,SE,132,5.0,10.0,64,0.00,,,0.00,LWC2 V0.39 B123,2013-03-29 19:00:00,
2013-03-29 13:05:00,70.8,58.4,30.06,East,95,3.0,6.0,65,0.00,,,0.00,LWC2 V0.39 B123,2013-03-29 19:05:00,
2013-03-29 13:10:00,71.1,58.3,30.06,ESE,108,2.0,5.0,64,0.00,,,0.00,LWC2 V0.39 B123,2013-03-29 19:10:00,
2013-03-29 13:15:00,70.9,58.1,30.05,East,82,3.0,6.0,64,0.00,,,0.00,LWC2 V0.39 B123,2013-03-29 19:15:00,
2013-03-29 13:20:00,70.7,58.3,30.05,ESE,113,4.0,5.0,65,0.00,,,0.00,LWC2 V0.39 B123,2013-03-29 19:20:00,
2013-03-29 13:25:00,70.5,58.2,30.05,East,97,3.0,5.0,65,0.00,,,0.00,LWC2 V0.39 B123,2013-03-29 19:25:00,
2013-03-29 13:30:00,70.1,58.6,30.05,ESE,110,3.0,4.0,67,0.00,,,0.00,LWC2 V0.39 B123,2013-03-29 19:30:00,
2013-03-29 13:35:00,70.3,58.4,30.05,ESE,110,4.0,7.0,66,0.00,,,0.00,LWC2 V0.39 B123,2013-03-29 19:35:00,
2013-03-29 13:40:00,70.1,58.2,30.05,East,91,2.0,5.0,66,0.00,,,0.00,LWC2 V0.39 B123,2013-03-29 19:40:00,
2013-03-29 13:45:00,70.3,58.4,30.05,SE,136,5.0,7.0,66,0.00,,,0.00,LWC2 V0.39 B123,2013-03-29 19:45:00,
2013-03-29 13:50:00,71.0,59.1,30.05,ESE,109,4.0,7.0,66,0.00,,,0.00,LWC2 V0.39 B123,2013-03-29 19:50:00,
2013-03-29 13:55:00,71.6,58.8,30.04,South,170,4.0,10.0,64,0.00,,,0.00,LWC2 V0.39 B123,2013-03-29 19:55:00,
2013-03-29 14:00:00,71.2,58.4,30.04,SE,130,7.0,11.0,64,0.00,,,0.00,LWC2 V0.39 B123,2013-03-29 20:00:00,
2013-03-29 14:05:00,70.5,58.6,30.04,SE,141,4.0,10.0,66,0.00,,,0.00,LWC2 V0.39 B123,2013-03-29 20:05:00,
2013-03-29 14:10:00,70.6,58.7,30.04,South,176,4.0,8.0,66,0.00,,,0.00,LWC2 V0.39 B123,2013-03-29 20:10:00,
2013-03-29 14:15:00,70.4,58.5,30.04,East,89,4.0,7.0,66,0.00,,,0.00,LWC2 V0.39 B123,2013-03-29 20:15:00,
2013-03-29 14:20:00,70.5,58.6,30.03,East,90,3.0,5.0,66,0.00,,,0.00,LWC2 V0.39 B123,2013-03-29 20:20:00,
2013-03-29 14:25:00,70.6,58.7,30.03,ESE,108,8.0,12.0,66,0.00,,,0.00,LWC2 V0.39 B123,2013-03-29 20:25:00,
2013-03-29 14:30:00,70.9,58.5,30.03,ESE,110,11.0,11.0,65,0.00,,,0.00,LWC2 V0.39 B123,2013-03-29 20:30:00,
2013-03-29 14:35:00,71.1,58.7,30.03,ESE,110,6.0,10.0,65,0.00,,,0.00,LWC2 V0.39 B123,2013-03-29 20:35:00,
2013-03-29 14:40:00,71.8,59.4,30.03,ESE,114,9.0,11.0,65,0.00,,,0.00,LWC2 V0.39 B123,2013-03-29 20:40:00,
2013-03-29 14:45:00,71.7,58.9,30.03,ESE,105,10.0,11.0,64,0.00,,,0.00,LWC2 V0.39 B123,2013-03-29 20:45:00,
2013-03-29 14:50:00,70.3,58.4,30.03,East,89,4.0,10.0,66,0.00,,,0.00,LWC2 V0.39 B123,2013-03-29 20:50:00,
2013-03-29 14:55:00,69.8,58.3,30.03,ESE,108,7.0,12.0,67,0.00,,,0.00,LWC2 V0.39 B123,2013-03-29 20:55:00,
2013-03-29 15:00:00,69.2,58.6,30.03,ESE,117,7.0,14.0,69,0.00,,,0.00,LWC2 V0.39 B123,2013-03-29 21:00:00,
2013-03-29 15:05:00,69.6,59.0,30.03,East,89,11.0,12.0,69,0.00,,,0.00,LWC2 V0.39 B123,2013-03-29 21:05:00,
2013-03-29 15:10:00,69.5,58.9,30.03,SE,124,3.0,11.0,69,0.00,,,0.00,LWC2 V0.39 B123,2013-03-29 21:10:00,
2013-03-29 15:15:00,69.6,59.0,30.03,ESE,111,5.0,7.0,69,0.00,,,0.00,LWC2 V0.39 B123,2013-03-29 21:15:00,
2013-03-29 15:20:00,69.8,58.7,30.03,SE,129,7.0,12.0,68,0.00,,,0.00,LWC2 V0.39 B123,2013-03-29 21:20:00,
2013-03-29 15:25:00,69.2,58.6,30.03,ESE,121,5.0,10.0,69,0.00,,,0.00,LWC2 V0.39 B123,2013-03-29 21:25:00,
2013-03-29 15:30:00,69.2,59.0,30.03,ESE,114,6.0,9.0,70,0.00,,,0.00,LWC2 V0.39 B123,2013-03-29 21:30:00,
2013-03-29 15:35:00,69.2,59.0,30.03,SE,130,4.0,6.0,70,0.00,,,0.00,LWC2 V0.39 B123,2013-03-29 21:35:00,
2013-03-29 15:40:00,69.0,58.8,30.03,SE,131,5.0,9.0,70,0.00,,,0.00,LWC2 V0.39 B123,2013-03-29 21:40:00,
2013-03-29 15:45:00,69.0,58.8,30.03,SE,132,4.0,9.0,70,0.00,,,0.00,LWC2 V0.39 B123,2013-03-29 21:45:00,
2013-03-29 15:50:00,69.0,58.8,30.03,SSE,152,9.0,13.0,70,0.00,,,0.00,LWC2 V0.39 B123,2013-03-29 21:50:00,
2013-03-29 15:55:00,68.9,58.7,30.03,SSE,154,3.0,8.0,70,0.00,,,0.00,LWC2 V0.39 B123,2013-03-29 21:55:00,
2013-03-29 16:00:00,68.6,58.8,30.03,SSE,159,7.0,15.0,71,0.00,,,0.00,LWC2 V0.39 B123,2013-03-29 22:00:00,
2013-03-29 16:05:00,68.2,58.4,30.03,SE,145,5.0,8.0,71,0.00,,,0.00,LWC2 V0.39 B123,2013-03-29 22:05:00,
2013-03-29 16:10:00,67.9,58.5,30.04,SE,145,8.0,10.0,72,0.00,,,0.00,LWC2 V0.39 B123,2013-03-29 22:10:00,
2013-03-29 16:15:00,67.9,58.5,30.04,ESE,105,6.0,8.0,72,0.00,,,0.00,LWC2 V0.39 B123,2013-03-29 22:15:00,
2013-03-29 16:20:00,68.3,58.9,30.04,SE,125,5.0,11.0,72,0.00,,,0.00,LWC2 V0.39 B123,2013-03-29 22:20:00,
2013-03-29 16:25:00,68.8,59.0,30.03,SE,129,6.0,11.0,71,0.00,,,0.00,LWC2 V0.39 B123,2013-03-29 22:25:00,
2013-03-29 16:30:00,68.9,59.1,30.03,ESE,115,6.0,16.0,71,0.00,,,0.00,LWC2 V0.39 B123,2013-03-29 22:30:00,
2013-03-29 16:35:00,68.4,58.6,30.03,SE,142,2.0,6.0,71,0.00,,,0.00,LWC2 V0.39 B123,2013-03-29 22:35:00,
2013-03-29 16:40:00,68.0,58.6,30.04,ESE,122,4.0,4.0,72,0.00,,,0.00,LWC2 V0.39 B123,2013-03-29 22:40:00,
2013-03-29 16:45:00,67.5,58.5,30.04,ESE,122,4.0,8.0,73,0.00,,,0.00,LWC2 V0.39 B123,2013-03-29 22:45:00,
2013-03-29 16:50:00,66.9,58.3,30.03,SE,134,3.0,9.0,74,0.00,,,0.00,LWC2 V0.39 B123,2013-03-29 22:50:00,
2013-03-29 16:55:00,66.6,58.8,30.03,SSE,164,5.0,11.0,76,0.00,,,0.00,LWC2 V0.39 B123,2013-03-29 22:55:00,
2013-03-29 17:00:00,66.3,58.5,30.03,SSE,148,5.0,11.0,76,0.00,,,0.00,LWC2 V0.39 B123,2013-03-29 23:00:00,
2013-03-29 17:05:00,66.2,58.8,30.03,ESE,108,7.0,7.0,77,0.00,,,0.00,LWC2 V0.39 B123,2013-03-29 23:05:00,
2013-03-29 17:10:00,66.0,58.6,30.03,South,180,7.0,11.0,77,0.00,,,0.00,LWC2 V0.39 B123,2013-03-29 23:10:00,
2013-03-29 17:15:00,65.8,58.4,30.03,ESE,113,8.0,12.0,77,0.00,,,0.00,LWC2 V0.39 B123,2013-03-29 23:15:00,
2013-03-29 17:20:00,65.5,58.5,30.03,SSE,152,4.0,8.0,78,0.00,,,0.00,LWC2 V0.39 B123,2013-03-29 23:20:00,
2013-03-29 17:25:00,65.4,58.4,30.04,SE,142,6.0,11.0,78,0.00,,,0.00,LWC2 V0.39 B123,2013-03-29 23:25:00,
2013-03-29 17:30:00,65.4,58.4,30.03,SSE,150,6.0,9.0,78,0.00,,,0.00,LWC2 V0.39 B123,2013-03-29 23:30:00,
2013-03-29 17:35:00,65.5,58.5,30.03,South,173,7.0,7.0,78,0.00,,,0.00,LWC2 V0.39 B123,2013-03-29 23:35:00,
2013-03-29 17:40:00,65.6,58.2,30.02,ESE,121,6.0,9.0,77,0.00,,,0.00,LWC2 V0.39 B123,2013-03-29 23:40:00,
2013-03-29 17:45:00,65.4,58.4,30.03,SE,135,4.0,5.0,78,0.00,,,0.00,LWC2 V0.39 B123,2013-03-29 23:45:00,
2013-03-29 17:50:00,65.3,58.3,30.03,SSE,149,3.0,6.0,78,0.00,,,0.00,LWC2 V0.39 B123,2013-03-29 23:50:00,
2013-03-29 17:55:00,65.1,58.1,30.03,SE,146,6.0,8.0,78,0.00,,,0.00,LWC2 V0.39 B123,2013-03-29 23:55:00,
2013-03-29 18:00:00,64.7,58.0,30.04,SE,143,7.0,9.0,79,0.00,,,0.00,LWC2 V0.39 B123,2013-03-30 00:00:00,
2013-03-29 18:05:00,64.4,57.7,30.04,ESE,123,3.0,5.0,79,0.00,,,0.00,LWC2 V0.39 B123,2013-03-30 00:05:00,
2013-03-29 18:10:00,64.2,57.9,30.04,SSE,155,5.0,9.0,80,0.00,,,0.00,LWC2 V0.39 B123,2013-03-30 00:10:00,
2013-03-29 18:15:00,64.1,57.8,30.04,SE,139,3.0,8.0,80,0.00,,,0.00,LWC2 V0.39 B123,2013-03-30 00:15:00,
2013-03-29 18:20:00,63.9,57.6,30.04,SE,139,5.0,7.0,80,0.00,,,0.00,LWC2 V0.39 B123,2013-03-30 00:20:00,
2013-03-29 18:25:00,63.8,57.9,30.03,SSE,150,4.0,8.0,81,0.00,,,0.00,LWC2 V0.39 B123,2013-03-30 00:25:00,
2013-03-29 18:30:00,63.6,57.7,30.04,SSE,153,5.0,6.0,81,0.00,,,0.00,LWC2 V0.39 B123,2013-03-30 00:30:00,
2013-03-29 18:35:00,63.5,57.6,30.03,ESE,122,5.0,5.0,81,0.00,,,0.00,LWC2 V0.39 B123,2013-03-30 00:35:00,
2013-03-29 18:40:00,63.3,57.4,30.03,SE,124,7.0,11.0,81,0.00,,,0.00,LWC2 V0.39 B123,2013-03-30 00:40:00,
2013-03-29 18:45:00,63.2,57.6,30.03,SSE,165,9.0,9.0,82,0.00,,,0.00,LWC2 V0.39 B123,2013-03-30 00:45:00,
2013-03-29 18:50:00,62.9,57.3,30.03,SE,146,6.0,10.0,82,0.00,,,0.00,LWC2 V0.39 B123,2013-03-30 00:50:00,
2013-03-29 18:55:00,62.7,57.1,30.03,SE,142,8.0,10.0,82,0.00,,,0.00,LWC2 V0.39 B123,2013-03-30 00:55:00,
2013-03-29 19:00:00,62.5,57.3,30.03,SE,141,5.0,9.0,83,0.00,,,0.00,LWC2 V0.39 B123,2013-03-30 01:00:00,
2013-03-29 19:05:00,62.2,57.0,30.02,South,186,5.0,9.0,83,0.00,,,0.00,LWC2 V0.39 B123,2013-03-30 01:05:00,
2013-03-29 19:10:00,62.0,57.1,30.03,South,174,3.0,9.0,84,0.00,,,0.00,LWC2 V0.39 B123,2013-03-30 01:10:00,
2013-03-29 19:15:00,61.8,56.9,30.03,SE,129,2.0,6.0,84,0.00,,,0.00,LWC2 V0.39 B123,2013-03-30 01:15:00,
2013-03-29 19:20:00,61.7,56.8,30.03,SE,129,2.0,4.0,84,0.00,,,0.00,LWC2 V0.39 B123,2013-03-30 01:20:00,
2013-03-29 19:25:00,61.6,56.7,30.04,ESE,122,5.0,6.0,84,0.00,,,0.00,LWC2 V0.39 B123,2013-03-30 01:25:00,
2013-03-29 19:30:00,61.6,56.7,30.03,SSE,162,3.0,7.0,84,0.00,,,0.00,LWC2 V0.39 B123,2013-03-30 01:30:00,
2013-03-29 19:35:00,61.5,56.6,30.03,SE,132,5.0,5.0,84,0.00,,,0.00,LWC2 V0.39 B123,2013-03-30 01:35:00,
2013-03-29 19:40:00,61.4,56.5,30.04,SE,131,3.0,5.0,84,0.00,,,0.00,LWC2 V0.39 B123,2013-03-30 01:40:00,
2013-03-29 19:45:00,61.3,56.7,30.03,ESE,123,5.0,8.0,85,0.00,,,0.00,LWC2 V0.39 B123,2013-03-30 01:45:00,
2013-03-29 19:50:00,61.2,56.7,30.03,SE,129,5.0,9.0,85,0.00,,,0.00,LWC2 V0.39 B123,2013-03-30 01:50:00,
2013-03-29 19:57:00,61.0,56.8,30.04,SE,129,4.0,6.0,86,0.00,,,0.00,LWC2 V0.39 B123,2013-03-30 01:57:00,
2013-03-29 20:02:00,60.6,56.7,30.03,SE,134,4.0,5.0,87,0.00,,,0.00,LWC2 V0.39 B123,2013-03-30 02:02:00,
2013-03-29 20:08:00,60.3,56.7,30.04,ESE,121,4.0,8.0,88,0.00,,,0.00,LWC2 V0.39 B123,2013-03-30 02:08:00,
2013-03-29 20:13:00,60.1,56.5,30.03,ESE,114,5.0,8.0,88,0.00,,,0.00,LWC2 V0.39 B123,2013-03-30 02:13:00,
2013-03-29 20:18:00,60.0,56.7,30.03,SSE,153,4.0,8.0,89,0.00,,,0.00,LWC2 V0.39 B123,2013-03-30 02:18:00,
2013-03-29 20:23:00,59.9,56.6,30.03,SE,142,4.0,5.0,89,0.00,,,0.00,LWC2 V0.39 B123,2013-03-30 02:23:00,
2013-03-29 20:28:00,59.8,56.9,30.03,SE,129,4.0,6.0,90,0.00,,,0.00,LWC2 V0.39 B123,2013-03-30 02:28:00,
2013-03-29 20:33:00,59.7,56.8,30.03,SE,131,4.0,5.0,90,0.00,,,0.00,LWC2 V0.39 B123,2013-03-30 02:33:00,
2013-03-29 20:39:00,59.5,56.9,30.03,SE,140,4.0,5.0,91,0.00,,,0.00,LWC2 V0.39 B123,2013-03-30 02:39:00,
2013-03-29 20:44:00,59.4,56.8,30.03,SE,143,2.0,4.0,91,0.00,,,0.00,LWC2 V0.39 B123,2013-03-30 02:44:00,
2013-03-29 20:49:00,59.3,56.7,30.03,SE,128,2.0,4.0,91,0.00,,,0.00,LWC2 V0.39 B123,2013-03-30 02:49:00,
2013-03-29 20:54:00,59.1,56.8,30.03,SE,128,2.0,3.0,92,0.00,,,0.00,LWC2 V0.39 B123,2013-03-30 02:54:00,
2013-03-29 20:59:00,59.0,56.7,30.03,ESE,103,3.0,8.0,92,0.43,,,0.02,LWC2 V0.39 B123,2013-03-30 02:59:00,
2013-03-29 21:04:00,58.7,56.4,30.03,ESE,105,1.0,5.0,92,0.13,,,0.03,LWC2 V0.39 B123,2013-03-30 03:04:00,
2013-03-29 21:09:00,58.4,56.1,30.04,SE,126,3.0,6.0,92,0.08,,,0.04,LWC2 V0.39 B123,2013-03-30 03:09:00,
2013-03-29 21:14:00,58.3,56.3,30.04,SSE,158,2.0,3.0,93,0.08,,,0.04,LWC2 V0.39 B123,2013-03-30 03:14:00,
2013-03-29 21:19:00,58.3,56.3,30.03,SE,124,3.0,5.0,93,0.05,,,0.04,LWC2 V0.39 B123,2013-03-30 03:19:00,
2013-03-29 21:24:00,58.1,56.1,30.03,SE,134,3.0,6.0,93,0.04,,,0.04,LWC2 V0.39 B123,2013-03-30 03:24:00,
2013-03-29 21:29:00,58.1,56.4,30.03,SE,143,3.0,5.0,94,0.00,,,0.04,LWC2 V0.39 B123,2013-03-30 03:29:00,
2013-03-29 21:34:00,58.0,56.3,30.03,ESE,109,4.0,5.0,94,0.00,,,0.04,LWC2 V0.39 B123,2013-03-30 03:34:00,
2013-03-29 21:39:00,58.0,56.3,30.03,ESE,121,6.0,7.0,94,0.00,,,0.04,LWC2 V0.39 B123,2013-03-30 03:39:00,
2013-03-29 21:44:00,58.1,56.4,30.03,SSE,150,1.0,3.0,94,0.00,,,0.04,LWC2 V0.39 B123,2013-03-30 03:44:00,
2013-03-29 21:49:00,58.0,56.3,30.03,SE,125,3.0,4.0,94,0.00,,,0.04,LWC2 V0.39 B123,2013-03-30 03:49:00,
2013-03-29 21:54:00,58.0,56.3,30.03,ESE,105,1.0,3.0,94,0.00,,,0.04,LWC2 V0.39 B123,2013-03-30 03:54:00,
2013-03-29 21:59:00,58.1,56.4,30.03,ESE,113,1.0,2.0,94,0.00,,,0.04,LWC2 V0.39 B123,2013-03-30 03:59:00,
2013-03-29 22:00:00,58.1,56.4,30.03,ESE,107,1.0,2.0,94,0.00,,,0.04,LWC2 V0.39 B123,2013-03-30 04:00:00,
2013-03-29 22:01:00,58.1,56.4,30.03,ESE,120,3.0,3.0,94,0.00,,,0.04,LWC2 V0.39 B123,2013-03-30 04:01:00,
2013-03-29 22:03:00,58.1,56.4,30.03,ESE,115,3.0,4.0,94,0.00,,,0.04,LWC2 V0.39 B123,2013-03-30 04:03:00,
2013-03-29 22:06:00,58.0,56.3,30.03,East,96,4.0,4.0,94,0.00,,,0.04,LWC2 V0.39 B123,2013-03-30 04:06:00,
2013-03-29 22:11:00,58.1,56.4,30.03,SE,134,1.0,4.0,94,0.00,,,0.04,LWC2 V0.39 B123,2013-03-30 04:11:00,
2013-03-29 22:16:00,58.1,56.4,30.02,SE,134,2.0,4.0,94,0.00,,,0.04,LWC2 V0.39 B123,2013-03-30 04:16:00,
2013-03-29 22:21:00,58.1,56.4,30.02,ESE,116,3.0,3.0,94,0.00,,,0.04,LWC2 V0.39 B123,2013-03-30 04:21:00,
2013-03-29 22:26:00,58.1,56.1,30.02,ESE,103,3.0,3.0,93,0.00,,,0.04,LWC2 V0.39 B123,2013-03-30 04:26:00,
2013-03-29 22:32:00,58.0,56.0,30.03,ESE,104,1.0,5.0,93,0.00,,,0.04,LWC2 V0.39 B123,2013-03-30 04:32:00,
2013-03-29 22:37:00,57.9,55.9,30.03,ESE,104,5.0,6.0,93,0.00,,,0.04,LWC2 V0.39 B123,2013-03-30 04:37:00,
2013-03-29 22:42:00,58.0,55.7,30.03,ESE,111,4.0,5.0,92,0.00,,,0.04,LWC2 V0.39 B123,2013-03-30 04:42:00,
2013-03-29 22:47:00,58.2,55.9,30.03,ESE,104,4.0,4.0,92,0.00,,,0.04,LWC2 V0.39 B123,2013-03-30 04:47:00,
2013-03-29 22:52:00,58.3,55.7,30.03,ESE,118,2.0,4.0,91,0.00,,,0.04,LWC2 V0.39 B123,2013-03-30 04:52:00,
2013-03-29 22:57:00,58.5,55.9,30.03,ESE,110,3.0,5.0,91,0.00,,,0.04,LWC2 V0.39 B123,2013-03-30 04:57:00,
2013-03-29 23:02:00,58.5,55.9,30.03,SE,140,2.0,6.0,91,0.00,,,0.00,LWC2 V0.39 B123,2013-03-30 05:02:00,
2013-03-29 23:07:00,58.6,56.0,30.03,SE,146,3.0,6.0,91,0.00,,,0.00,LWC2 V0.39 B123,2013-03-30 05:07:00,
2013-03-29 23:12:00,58.6,56.0,30.03,ESE,107,4.0,8.0,91,0.00,,,0.00,LWC2 V0.39 B123,2013-03-30 05:12:00,
2013-03-29 23:17:00,58.7,56.1,30.03,SE,134,5.0,8.0,91,0.00,,,0.00,LWC2 V0.39 B123,2013-03-30 05:17:00,
2013-03-29 23:22:00,58.7,56.1,30.03,SE,124,5.0,6.0,91,0.00,,,0.00,LWC2 V0.39 B123,2013-03-30 05:22:00,
2013-03-29 23:27:00,58.6,56.0,30.03,SE,143,4.0,9.0,91,0.00,,,0.00,LWC2 V0.39 B123,2013-03-30 05:27:00,
2013-03-29 23:32:00,58.6,56.3,30.03,SSE,159,3.0,6.0,92,0.00,,,0.00,LWC2 V0.39 B123,2013-03-30 05:32:00,
2013-03-29 23:37:00,58.7,56.4,30.02,East,101,3.0,8.0,92,0.00,,,0.00,LWC2 V0.39 B123,2013-03-30 05:37:00,
2013-03-29 23:42:00,58.6,56.3,30.02,ESE,107,4.0,7.0,92,0.00,,,0.00,LWC2 V0.39 B123,2013-03-30 05:42:00,
2013-03-29 23:47:00,58.6,56.3,30.02,ESE,108,6.0,6.0,92,0.00,,,0.00,LWC2 V0.39 B123,2013-03-30 05:47:00,
2013-03-29 23:52:00,58.5,56.2,30.02,East,96,3.0,5.0,92,0.00,,,0.00,LWC2 V0.39 B123,2013-03-30 05:52:00,
2013-03-29 23:58:00,58.4,56.1,30.02,SE,136,4.0,5.0,92,0.00,,,0.00,LWC2 V0.39 B123,2013-03-30 05:58:00,